• Join FlightAware (Why Join?)
  • Login
  • US Flag 
02:31PM EDT


 

Airport Tracker/Info


-or-


 

Live Flight TrackerFlight Track Log ✈ SKW5631 ✈ 19-Jul-2013 ✈ KSFO - KBUR

Flight Track Log - Related Links

Times and Time Zones

All times are in EDT time to prevent confusion due to time zone crossing. See the SKW5631 flight status page for this flight to view local times or setup timezone preferences in your user account.

Time Position Orientation Groundspeed Altitude Reporting Facility
EDT Latitude Longitude Course Direction KTS MPH feet Rate Location/Type
09:55PM 37.6472 -122.3631 141° Southeast 180 207 1,000  Level Oakland Center
09:56PM 37.7000 -122.3736 351° North 217 250 2,700 1,800 Climbing Oakland Center
09:57PM 37.7222 -122.4506 290° West 253 291 4,700 2,100 Climbing Oakland Center
09:58PM 37.6553 -122.4711 194° South 275 316 7,000 2,220 Climbing Oakland Center
09:59PM 37.2618 -122.1010 130° Southeast  Level FlightAware Approximate
09:59PM 37.5814 -122.4297 156° South 287 330 9,300  Level Oakland Center
10:00PM 37.1684 -121.9801 133° Southeast  Level FlightAware Approximate
10:01PM 37.0755 -121.8588 141° Southeast  Level FlightAware Approximate
10:01PM 37.4911 -122.3828 158° South 292 336 11,800  Level Oakland Center
10:02PM 37.4264 -122.3197 142° Southeast 300 345 13,800 1,860 Climbing Oakland Center
10:03PM 37.3600 -122.2517 141° Southeast 310 357 15,600 1,620 Climbing Oakland Center
10:04PM 37.2936 -122.1800 139° Southeast 316 364 17,100 1,500 Climbing Oakland Center
10:05PM 37.2244 -122.1050 139° Southeast 327 376 18,700 1,380 Climbing Oakland Center
10:06PM 37.1544 -122.0278 139° Southeast 335 386 20,000 1,260 Climbing Oakland Center
10:07PM 37.0825 -121.9500 139° Southeast 341 392 21,300 1,200 Climbing Oakland Center
10:08PM 37.0086 -121.8703 139° Southeast 350 403 22,500 1,260 Climbing Oakland Center
10:09PM 36.9339 -121.7906 140° Southeast 354 407 23,900 1,080 Climbing Oakland Center
10:10PM 36.8589 -121.7111 140° Southeast 355 409 24,800 960 Climbing Oakland Center
10:11PM 36.7764 -121.6225 139° Southeast 362 417 25,900 900 Climbing Oakland Center
10:12PM 36.6983 -121.5392 139° Southeast 369 425 26,700 540 Climbing Oakland Center
10:13PM 36.6169 -121.4511 139° Southeast 384 442 27,000 120 Climbing Oakland Center
10:14PM 36.5314 -121.3586 139° Southeast 406 467 27,000  Level Oakland Center
10:15PM 36.4247 -121.2461 140° Southeast 419 482 27,000  Level Oakland Center
10:16PM 36.3344 -121.1506 140° Southeast 425 489 27,000  Level Oakland Center
10:17PM 36.2439 -121.0550 140° Southeast 428 493 27,000  Level Oakland Center
10:18PM 36.1553 -120.9600 139° Southeast 423 487 27,000  Level Oakland Center
10:19PM 36.0658 -120.8667 140° Southeast 420 483 27,000  Level Oakland Center
10:20PM 35.9769 -120.7739 140° Southeast 419 482 27,000  Level Oakland Center
10:21PM 35.8875 -120.6808 140° Southeast 421 484 27,000  Level Oakland Center
10:22PM 35.7992 -120.5892 140° Southeast 415 478 27,000  Level Oakland Center
10:23PM 35.7097 -120.4961 140° Southeast 418 481 27,000  Level Oakland Center
10:24PM 35.6197 -120.4031 140° Southeast 420 483 27,000  Level Oakland Center
10:25PM 35.5294 -120.3103 140° Southeast 417 480 27,000  Level Oakland Center
10:26PM 35.4353 -120.2125 140° Southeast 422 486 27,000  Level Oakland Center
10:27PM 35.3453 -120.1189 140° Southeast 427 491 27,000  Level Oakland Center
10:28PM 35.2536 -120.0278 141° Southeast 423 487 27,000  Level Oakland Center
10:29PM 35.1639 -119.9372 140° Southeast 419 482 27,000 -780 Level Oakland Center
10:30PM 35.0594 -119.8228 138° Southeast 420 483 25,500 -1,800 Descending Oakland Center
10:31PM 34.9822 -119.7175 132° Southeast 418 481 23,400 -2,100 Descending Oakland Center
10:32PM 34.9072 -119.6144 132° Southeast 410 472 21,300 -2,100 Descending Oakland Center
10:33PM 34.8308 -119.5131 133° Southeast 406 467 19,200 -2,040 Descending Oakland Center
10:34PM 34.7581 -119.4133 132° Southeast 399 459 17,200 -2,040 Descending Oakland Center
10:35PM 34.6897 -119.3214 132° Southeast 376 433 15,100 -2,100 Descending Oakland Center
10:36PM 34.6192 -119.2286 133° Southeast 372 428 13,000 -1,860 Descending Oakland Center
10:37PM 34.5333 -119.1167 133° Southeast 348 400 11,000 -960 Descending Southern California TRACON
10:38PM 34.4833 -119.0333 126° Southeast 288 331 11,000 -360 Level Southern California TRACON
10:39PM 34.4167 -118.9667 140° Southeast 296 341 10,300 -1,140 Descending Southern California TRACON
10:40PM 34.3667 -118.8833 126° Southeast 285 328 8,800 -1,500 Descending Southern California TRACON
10:41PM 34.3333 -118.8167 121° Southeast 282 325 7,300 -1,440 Descending Southern California TRACON
10:42PM 34.2833 -118.7333 126° Southeast 286 329 6,000 -1,020 Descending Southern California TRACON
10:43PM 34.2333 -118.6667 132° Southeast 251 289 5,300 -1,020 Descending Southern California TRACON
10:44PM 34.2000 -118.6000 121° Southeast 245 282 4,000 -1,320 Descending Southern California TRACON